Time;durP1;ratioP1;P1;durP2;ratioP2;P2;SDS_P1;SDS_P2;PMS_P1;PMS_P2;Temp;Humidity;BMP_temperature;BMP_pressure;BME280_temperature;BME280_humidity;BME280_pressure;Samples;Min_cycle;Max_cycle;Signal;HPM_P1;HPM_P2
2023/12/06 00:00:47;;;;;;;36.27;21.17;;;4.60;99.90;;;;;;5011206;28;20218;-59
2023/12/06 00:03:15;;;;;;;38.70;21.17;;;4.70;99.90;;;;;;5009598;28;20304;-60
2023/12/06 00:05:45;;;;;;;36.47;21.87;;;4.70;99.90;;;;;;5008552;28;20217;-59
2023/12/06 00:08:14;;;;;;;31.47;19.80;;;4.70;99.90;;;;;;5007054;28;20222;-60
2023/12/06 00:10:42;;;;;;;46.60;20.03;;;4.60;99.90;;;;;;5007759;28;20202;-60
2023/12/06 00:13:10;;;;;;;38.00;21.67;;;4.70;99.90;;;;;;5006726;28;20585;-60
2023/12/06 00:15:42;;;;;;;42.87;22.13;;;4.60;99.90;;;;;;5008032;28;20627;-60
2023/12/06 00:18:10;;;;;;;40.70;22.30;;;4.70;99.90;;;;;;5007516;28;20276;-60
2023/12/06 00:20:39;;;;;;;34.67;21.00;;;4.70;99.90;;;;;;5008725;28;20708;-60
2023/12/06 00:23:09;;;;;;;40.83;22.40;;;4.70;99.90;;;;;;5010785;28;20683;-60
2023/12/06 00:25:37;;;;;;;41.80;22.63;;;4.70;99.90;;;;;;5014003;28;20190;-60
2023/12/06 00:28:05;;;;;;;39.60;22.33;;;4.80;99.90;;;;;;5009193;28;20724;-60
2023/12/06 00:30:34;;;;;;;44.17;22.70;;;4.80;99.90;;;;;;5013754;28;20559;-60
2023/12/06 00:33:02;;;;;;;38.07;22.33;;;4.80;99.90;;;;;;5013585;28;20229;-60
2023/12/06 00:35:30;;;;;;;36.37;22.13;;;4.80;99.90;;;;;;5012187;28;20750;-61
2023/12/06 00:37:58;;;;;;;35.87;21.40;;;4.90;99.90;;;;;;5012302;28;20229;-59
2023/12/06 00:40:29;;;;;;;39.20;22.73;;;4.80;99.90;;;;;;5011996;28;20285;-60
2023/12/06 00:42:57;;;;;;;38.40;22.37;;;4.80;99.90;;;;;;4994163;28;20624;-60
2023/12/06 00:45:25;;;;;;;41.37;23.67;;;4.80;99.90;;;;;;5012436;28;20272;-60
2023/12/06 00:47:54;;;;;;;50.37;23.60;;;4.70;99.90;;;;;;5012248;28;20226;-60
2023/12/06 00:50:22;;;;;;;40.17;23.33;;;4.80;99.90;;;;;;5012943;28;20226;-60
2023/12/06 00:52:50;;;;;;;39.93;22.77;;;4.80;99.90;;;;;;5012391;28;20209;-60
2023/12/06 00:55:18;;;;;;;39.97;23.30;;;4.80;99.90;;;;;;5014577;28;20213;-60
2023/12/06 00:57:48;;;;;;;40.20;23.10;;;4.80;99.90;;;;;;5011706;28;20230;-60
2023/12/06 01:00:18;;;;;;;39.33;22.90;;;4.80;99.90;;;;;;5014146;28;20230;-60
2023/12/06 01:02:46;;;;;;;38.27;23.20;;;4.80;99.90;;;;;;5014880;28;20587;-60
2023/12/06 01:05:14;;;;;;;41.30;22.03;;;4.80;99.90;;;;;;5015087;28;20708;-59
2023/12/06 01:07:43;;;;;;;36.87;21.90;;;4.70;99.90;;;;;;5014105;28;20256;-60
2023/12/06 01:10:13;;;;;;;45.80;23.40;;;4.70;99.90;;;;;;4995172;28;20234;-59
2023/12/06 01:12:41;;;;;;;38.63;22.07;;;4.80;99.90;;;;;;5010169;28;20222;-60
2023/12/06 01:15:11;;;;;;;35.23;21.70;;;4.80;99.90;;;;;;5012840;28;20230;-59
2023/12/06 01:17:39;;;;;;;38.83;21.40;;;4.80;99.90;;;;;;5011702;28;20241;-60
2023/12/06 01:20:08;;;;;;;37.73;22.33;;;4.80;99.90;;;;;;5013629;28;20210;-59
2023/12/06 01:22:40;;;;;;;42.93;20.93;;;4.80;99.90;;;;;;5013937;28;21080;-60
2023/12/06 01:25:09;;;;;;;37.80;20.67;;;4.80;99.90;;;;;;5011825;28;20214;-60
2023/12/06 01:27:37;;;;;;;35.27;20.90;;;4.80;99.90;;;;;;5011392;28;20222;-60
2023/12/06 01:30:06;;;;;;;37.10;21.00;;;4.80;99.90;;;;;;5012592;28;20233;-60
2023/12/06 01:32:41;;;;;;;39.30;20.97;;;4.90;99.90;;;;;;5010682;28;20231;-60
2023/12/06 01:35:09;;;;;;;34.97;19.77;;;4.80;99.90;;;;;;5010810;28;20252;-59
2023/12/06 01:37:38;;;;;;;29.33;17.77;;;4.90;99.90;;;;;;5013679;28;20251;-59
2023/12/06 01:40:07;;;;;;;28.63;18.23;;;4.90;99.90;;;;;;5011254;28;20265;-60
2023/12/06 01:42:37;;;;;;;28.47;16.83;;;4.90;99.90;;;;;;5012453;28;20218;-60
2023/12/06 01:45:06;;;;;;;28.70;17.13;;;4.90;99.90;;;;;;5011345;28;20276;-59
2023/12/06 01:47:36;;;;;;;31.30;17.17;;;4.90;99.90;;;;;;5008820;28;20217;-60
2023/12/06 01:50:09;;;;;;;27.83;16.67;;;4.90;99.90;;;;;;5010200;28;20198;-60
2023/12/06 01:52:37;;;;;;;30.37;16.50;;;4.90;99.90;;;;;;5012567;28;20201;-60
2023/12/06 01:55:06;;;;;;;31.47;17.70;;;4.90;99.90;;;;;;5011847;28;20217;-60
2023/12/06 01:57:36;;;;;;;28.07;17.10;;;4.90;99.90;;;;;;5009467;28;20269;-60
2023/12/06 02:00:07;;;;;;;29.63;16.73;;;5.00;99.90;;;;;;5007184;28;20222;-59
2023/12/06 02:02:35;;;;;;;27.63;17.03;;;4.90;99.90;;;;;;5010250;28;20222;-60
2023/12/06 02:05:06;;;;;;;30.63;16.57;;;4.90;99.90;;;;;;5010758;28;20194;-60
2023/12/06 02:07:35;;;;;;;32.80;16.77;;;4.90;99.90;;;;;;5010812;28;20201;-60
2023/12/06 02:10:04;;;;;;;26.03;16.40;;;4.90;99.90;;;;;;4994680;28;20237;-59
2023/12/06 02:12:32;;;;;;;26.57;16.40;;;4.90;99.90;;;;;;5011409;28;20217;-60
2023/12/06 02:15:01;;;;;;;32.33;16.03;;;4.80;99.90;;;;;;5012285;28;20590;-59
2023/12/06 02:17:30;;;;;;;29.57;16.30;;;4.80;99.90;;;;;;5006871;28;20221;-60
2023/12/06 02:19:59;;;;;;;26.93;15.57;;;4.80;99.90;;;;;;5011079;28;20272;-59
2023/12/06 02:22:29;;;;;;;31.10;16.50;;;4.70;99.90;;;;;;5011837;28;20321;-60
2023/12/06 02:25:00;;;;;;;27.67;15.17;;;4.70;99.90;;;;;;5010495;28;20224;-60
2023/12/06 02:27:29;;;;;;;26.33;14.40;;;4.50;99.90;;;;;;5011170;28;20674;-60
2023/12/06 02:29:57;;;;;;;22.53;14.37;;;4.40;99.90;;;;;;5009422;28;20233;-64
2023/12/06 02:32:26;;;;;;;28.03;15.23;;;4.30;99.90;;;;;;5009775;28;20217;-60
2023/12/06 02:34:56;;;;;;;24.57;15.60;;;4.30;99.90;;;;;;5008417;28;20260;-60
2023/12/06 02:37:25;;;;;;;26.57;15.40;;;4.20;99.90;;;;;;5011305;28;20186;-60
2023/12/06 02:39:57;;;;;;;26.80;15.33;;;4.20;99.90;;;;;;5012387;28;20276;-59
2023/12/06 02:42:25;;;;;;;27.37;15.70;;;4.10;99.90;;;;;;5010997;28;20250;-59
2023/12/06 02:44:55;;;;;;;23.73;14.80;;;4.00;99.90;;;;;;5012622;28;20230;-60
2023/12/06 02:47:23;;;;;;;28.00;15.77;;;4.00;99.90;;;;;;5011664;28;20245;-60
2023/12/06 02:49:52;;;;;;;26.43;14.80;;;4.00;99.90;;;;;;5011250;28;20183;-59
2023/12/06 02:52:20;;;;;;;27.03;14.60;;;4.00;99.90;;;;;;5011240;28;20198;-60
2023/12/06 02:54:49;;;;;;;26.73;14.67;;;3.90;99.90;;;;;;5010463;28;20222;-60
2023/12/06 02:57:17;;;;;;;27.90;15.13;;;3.90;99.90;;;;;;5009171;28;20665;-60
2023/12/06 02:59:45;;;;;;;32.17;15.43;;;3.80;99.90;;;;;;5007776;28;20316;-59
2023/12/06 03:02:15;;;;;;;30.33;15.27;;;3.80;99.90;;;;;;5008783;28;20257;-60
2023/12/06 03:04:44;;;;;;;27.23;15.33;;;3.80;99.90;;;;;;4990889;28;20191;-60
2023/12/06 03:07:12;;;;;;;27.40;15.23;;;3.80;99.90;;;;;;5010375;28;20593;-60
2023/12/06 03:09:40;;;;;;;28.47;14.83;;;3.90;99.90;;;;;;5011240;28;20668;-60
2023/12/06 03:12:09;;;;;;;24.17;13.87;;;4.00;99.90;;;;;;5010148;28;20226;-60
2023/12/06 03:14:37;;;;;;;29.23;14.97;;;4.00;99.90;;;;;;5007243;28;20229;-60
2023/12/06 03:17:05;;;;;;;32.90;15.63;;;4.10;99.90;;;;;;5008021;28;20218;-60
2023/12/06 03:19:35;;;;;;;25.63;14.10;;;4.10;99.90;;;;;;5010008;28;20210;-59
2023/12/06 03:22:04;;;;;;;28.30;15.23;;;4.10;99.90;;;;;;5006581;28;20703;-60
2023/12/06 03:24:32;;;;;;;25.77;15.00;;;4.20;99.90;;;;;;5010643;28;20226;-60
2023/12/06 03:27:00;;;;;;;29.20;15.07;;;4.20;99.90;;;;;;5010024;28;20581;-59
2023/12/06 03:29:29;;;;;;;32.17;15.87;;;4.20;99.90;;;;;;5010921;28;20250;-59
2023/12/06 03:31:57;;;;;;;29.37;14.43;;;4.20;99.90;;;;;;5008780;28;20191;-60
2023/12/06 03:34:28;;;;;;;31.07;14.50;;;4.10;99.90;;;;;;5009336;28;20212;-59
2023/12/06 03:36:58;;;;;;;29.23;14.83;;;4.10;99.90;;;;;;5008901;28;20214;-60
2023/12/06 03:39:27;;;;;;;26.47;14.57;;;4.10;99.90;;;;;;5011190;28;20230;-60
2023/12/06 03:41:55;;;;;;;25.67;14.77;;;4.00;99.90;;;;;;5008650;28;20217;-59
2023/12/06 03:44:23;;;;;;;29.77;14.67;;;3.90;99.90;;;;;;5010236;28;20309;-59
2023/12/06 03:46:51;;;;;;;25.13;14.90;;;3.90;99.90;;;;;;5007744;28;20197;-60
2023/12/06 03:49:20;;;;;;;28.27;14.37;;;3.80;99.90;;;;;;5007751;28;20198;-59
2023/12/06 03:51:48;;;;;;;33.10;15.87;;;3.80;99.90;;;;;;5003598;28;20250;-60
2023/12/06 03:54:18;;;;;;;28.67;14.60;;;3.80;99.90;;;;;;5007066;28;20240;-59
2023/12/06 03:56:46;;;;;;;37.07;15.97;;;3.80;99.90;;;;;;5004360;28;20428;-58
2023/12/06 03:59:14;;;;;;;36.90;15.80;;;3.80;99.90;;;;;;5002851;28;20228;-60
2023/12/06 04:01:44;;;;;;;32.80;16.40;;;3.80;99.90;;;;;;5004937;28;20198;-60
2023/12/06 04:04:15;;;;;;;32.60;16.57;;;3.80;99.90;;;;;;5006277;28;20222;-59
2023/12/06 04:06:43;;;;;;;35.07;16.10;;;3.80;99.90;;;;;;5010519;28;20218;-60
2023/12/06 04:09:12;;;;;;;33.17;16.50;;;3.80;99.90;;;;;;5006493;28;20214;-60
2023/12/06 04:11:41;;;;;;;34.47;16.57;;;3.80;99.90;;;;;;4989964;28;20222;-60
2023/12/06 04:14:09;;;;;;;35.27;16.80;;;3.90;99.90;;;;;;5009004;28;20245;-60
2023/12/06 04:16:39;;;;;;;40.83;17.43;;;3.90;99.90;;;;;;5005434;28;20293;-60
2023/12/06 04:19:07;;;;;;;36.23;16.60;;;3.90;99.90;;;;;;5008305;28;20214;-60
2023/12/06 04:21:36;;;;;;;33.87;17.00;;;3.90;99.90;;;;;;5009359;28;20217;-59
2023/12/06 04:24:05;;;;;;;33.73;17.00;;;3.90;99.90;;;;;;5009126;28;20226;-59
2023/12/06 04:26:33;;;;;;;33.50;16.70;;;4.00;99.90;;;;;;5007716;28;20226;-59
2023/12/06 04:29:03;;;;;;;37.37;17.03;;;4.00;99.90;;;;;;5009244;28;20204;-59
2023/12/06 04:31:31;;;;;;;29.87;16.53;;;4.00;99.90;;;;;;5009966;28;20193;-60
2023/12/06 04:34:00;;;;;;;35.60;16.77;;;4.10;99.90;;;;;;5009695;28;20229;-60
2023/12/06 04:36:28;;;;;;;30.77;16.63;;;4.10;99.90;;;;;;5010187;28;20237;-59
2023/12/06 04:38:58;;;;;;;30.03;16.23;;;4.10;99.90;;;;;;5008720;28;20226;-59
2023/12/06 04:41:26;;;;;;;33.70;16.77;;;4.10;99.90;;;;;;5009133;28;20213;-60
2023/12/06 04:43:54;;;;;;;34.43;17.00;;;4.10;99.90;;;;;;5009198;28;20190;-58
2023/12/06 04:46:23;;;;;;;39.40;16.40;;;4.10;99.90;;;;;;5004705;28;20596;-59
2023/12/06 04:48:51;;;;;;;32.13;16.23;;;4.10;99.90;;;;;;4983385;28;20795;-60
2023/12/06 04:51:20;;;;;;;32.67;18.00;;;4.10;99.90;;;;;;5005390;28;20233;-59
2023/12/06 04:53:48;;;;;;;31.17;17.07;;;4.20;99.90;;;;;;5009146;28;20770;-59
2023/12/06 04:56:16;;;;;;;32.83;16.30;;;4.20;99.90;;;;;;5010043;28;20225;-59
2023/12/06 04:58:44;;;;;;;39.57;18.57;;;4.20;99.90;;;;;;5000148;28;20696;-60
2023/12/06 05:01:13;;;;;;;38.30;19.30;;;4.20;99.90;;;;;;5004228;28;20653;-60
2023/12/06 05:03:42;;;;;;;41.07;19.50;;;4.20;99.90;;;;;;5002071;28;20221;-60
2023/12/06 05:06:11;;;;;;;44.90;21.80;;;4.20;99.90;;;;;;5001032;28;20214;-60
2023/12/06 05:08:39;;;;;;;68.90;35.17;;;4.20;99.90;;;;;;5000298;28;20232;-60
2023/12/06 05:11:08;;;;;;;74.90;37.10;;;4.20;99.90;;;;;;5004271;28;20202;-60
2023/12/06 05:13:36;;;;;;;83.30;39.73;;;4.20;99.90;;;;;;5008693;28;20197;-59
2023/12/06 05:16:05;;;;;;;77.47;35.67;;;4.30;99.90;;;;;;5002081;28;20232;-60
2023/12/06 05:18:33;;;;;;;57.80;28.47;;;4.20;99.90;;;;;;5011566;28;20597;-60
2023/12/06 05:21:03;;;;;;;50.00;24.30;;;4.20;99.90;;;;;;5007227;28;20321;-59
2023/12/06 05:23:31;;;;;;;50.27;23.57;;;4.20;99.90;;;;;;5005784;28;20224;-60
2023/12/06 05:26:00;;;;;;;51.07;23.33;;;4.20;99.90;;;;;;5007110;28;20202;-60
2023/12/06 05:28:28;;;;;;;49.17;21.23;;;4.20;99.90;;;;;;5007702;28;20202;-60
2023/12/06 05:30:56;;;;;;;37.63;18.03;;;4.20;99.90;;;;;;5005284;28;20224;-60
2023/12/06 05:33:24;;;;;;;30.27;15.83;;;4.20;99.90;;;;;;5008189;28;20225;-60
2023/12/06 05:35:53;;;;;;;30.20;14.40;;;4.30;99.90;;;;;;5007322;28;20258;-59
2023/12/06 05:38:22;;;;;;;30.57;14.50;;;4.30;99.90;;;;;;5004122;28;20222;-60
2023/12/06 05:40:51;;;;;;;27.03;14.07;;;4.30;99.90;;;;;;5005548;28;20222;-59
2023/12/06 05:43:20;;;;;;;26.90;13.83;;;4.30;99.90;;;;;;4993723;28;20530;-59
2023/12/06 05:45:48;;;;;;;31.70;16.13;;;4.20;99.90;;;;;;5006697;28;20305;-60
2023/12/06 05:48:16;;;;;;;38.03;17.10;;;4.20;99.90;;;;;;5002198;28;20818;-60
2023/12/06 05:50:45;;;;;;;33.87;17.70;;;4.10;99.90;;;;;;5004790;28;20635;-60
2023/12/06 05:53:13;;;;;;;32.57;17.87;;;4.10;99.90;;;;;;5010800;28;20225;-60
2023/12/06 05:55:44;;;;;;;28.10;15.77;;;4.10;99.90;;;;;;5013401;28;20951;-60
2023/12/06 05:58:12;;;;;;;27.50;14.07;;;4.10;99.90;;;;;;5010383;28;20313;-59
2023/12/06 06:00:40;;;;;;;24.90;12.93;;;4.10;99.90;;;;;;5005498;28;20221;-59
2023/12/06 06:03:12;;;;;;;29.17;13.53;;;4.10;99.90;;;;;;5004514;28;20298;-60
2023/12/06 06:05:40;;;;;;;35.93;15.90;;;4.00;99.90;;;;;;5003203;28;20596;-59
2023/12/06 06:08:08;;;;;;;40.07;16.40;;;4.10;99.90;;;;;;5010117;28;20198;-61
2023/12/06 06:10:36;;;;;;;28.33;13.40;;;4.10;99.90;;;;;;5010099;28;20285;-60
2023/12/06 06:13:06;;;;;;;30.07;14.00;;;4.10;99.90;;;;;;5011486;28;20218;-60
2023/12/06 06:15:34;;;;;;;30.17;14.57;;;4.10;99.90;;;;;;5006043;28;20233;-60
2023/12/06 06:18:05;;;;;;;37.20;15.27;;;4.10;99.90;;;;;;5005994;28;20694;-59
2023/12/06 06:20:34;;;;;;;34.17;13.77;;;4.10;99.90;;;;;;5004762;28;20693;-60
2023/12/06 06:23:02;;;;;;;30.07;13.90;;;4.10;99.90;;;;;;5004258;28;20198;-59
2023/12/06 06:25:30;;;;;;;24.33;13.03;;;4.10;99.90;;;;;;5001197;28;20202;-60
2023/12/06 06:27:59;;;;;;;30.27;12.87;;;4.10;99.90;;;;;;5005892;28;20261;-59
2023/12/06 06:30:29;;;;;;;33.80;14.27;;;4.20;99.90;;;;;;5006634;28;20313;-60
2023/12/06 06:32:57;;;;;;;31.17;14.17;;;4.10;99.90;;;;;;5003700;28;20226;-60
2023/12/06 06:35:25;;;;;;;34.43;15.60;;;4.20;99.90;;;;;;5004937;28;20244;-60
2023/12/06 06:37:54;;;;;;;30.63;15.53;;;4.20;99.90;;;;;;4999836;28;20565;-59
2023/12/06 06:40:22;;;;;;;25.87;13.00;;;4.20;99.90;;;;;;4997803;28;20221;-60
2023/12/06 06:42:51;;;;;;;22.50;12.40;;;4.20;99.90;;;;;;5007298;28;20214;-60
2023/12/06 06:45:20;;;;;;;25.10;12.97;;;4.20;99.90;;;;;;5001790;28;20700;-60
2023/12/06 06:47:50;;;;;;;25.40;12.27;;;4.20;99.90;;;;;;5005342;28;20209;-59
2023/12/06 06:50:18;;;;;;;23.20;13.40;;;4.20;99.90;;;;;;4998703;28;20333;-60
2023/12/06 06:52:49;;;;;;;29.20;13.73;;;4.20;99.90;;;;;;5002673;28;20186;-60
2023/12/06 06:55:17;;;;;;;31.13;14.40;;;4.20;99.90;;;;;;5009789;28;20224;-60
2023/12/06 06:57:46;;;;;;;28.33;14.57;;;4.10;99.90;;;;;;5005973;28;20230;-60
2023/12/06 07:00:16;;;;;;;39.67;15.47;;;4.10;99.90;;;;;;5006455;28;20218;-59
2023/12/06 07:02:59;;;;;;;47.87;18.30;;;4.00;99.90;;;;;;5005920;28;20226;-60
2023/12/06 07:05:29;;;;;;;47.27;17.97;;;3.90;99.90;;;;;;5006282;28;20226;-60
2023/12/06 07:07:58;;;;;;;35.83;15.53;;;3.90;99.90;;;;;;5002915;28;20197;-59
2023/12/06 07:10:26;;;;;;;42.50;16.90;;;3.80;99.90;;;;;;5004382;28;20237;-60
2023/12/06 07:12:54;;;;;;;32.83;14.30;;;3.70;99.90;;;;;;5007296;28;20218;-59
2023/12/06 07:15:25;;;;;;;26.10;12.57;;;3.70;99.90;;;;;;5008171;28;20221;-59
2023/12/06 07:17:54;;;;;;;21.03;11.57;;;3.60;99.90;;;;;;5003767;28;20228;-59
2023/12/06 07:20:25;;;;;;;18.60;11.73;;;3.50;99.90;;;;;;5004582;28;20245;-59
2023/12/06 07:23:08;;;;;;;21.20;11.13;;;3.50;99.90;;;;;;5009049;28;20247;-59
2023/12/06 07:25:36;;;;;;;26.00;12.33;;;3.30;99.90;;;;;;4997538;28;20202;-60
2023/12/06 07:28:04;;;;;;;30.77;13.13;;;3.30;99.90;;;;;;4998231;28;20232;-60
2023/12/06 07:30:33;;;;;;;24.53;13.17;;;3.30;99.90;;;;;;5003810;28;20217;-59
2023/12/06 07:33:01;;;;;;;25.33;13.30;;;3.20;99.90;;;;;;4982812;28;20308;-59
2023/12/06 07:35:31;;;;;;;30.63;13.27;;;3.10;99.90;;;;;;5006446;28;20230;-59
2023/12/06 07:37:59;;;;;;;24.73;12.00;;;3.10;99.90;;;;;;4987081;28;20311;-60
2023/12/06 07:40:28;;;;;;;29.57;13.07;;;3.10;99.90;;;;;;5006704;28;20284;-60
2023/12/06 07:42:57;;;;;;;25.10;12.90;;;3.10;99.90;;;;;;4985897;28;20232;-59
2023/12/06 07:45:28;;;;;;;20.37;12.00;;;3.10;99.90;;;;;;5008836;28;20300;-59
2023/12/06 07:47:57;;;;;;;26.20;12.77;;;3.30;99.90;;;;;;5004699;28;20732;-59
2023/12/06 07:50:25;;;;;;;24.13;12.93;;;3.30;99.90;;;;;;5005238;28;20693;-59
2023/12/06 07:52:55;;;;;;;22.27;12.33;;;3.40;99.90;;;;;;5005487;28;20198;-60
2023/12/06 07:55:23;;;;;;;21.23;12.87;;;3.60;99.90;;;;;;5007408;28;20556;-59
2023/12/06 07:57:54;;;;;;;23.43;12.13;;;3.60;99.90;;;;;;5006753;28;20230;-59
2023/12/06 08:00:23;;;;;;;27.20;12.67;;;3.70;99.90;;;;;;5009062;28;20238;-59
2023/12/06 08:02:52;;;;;;;25.73;12.37;;;3.70;99.90;;;;;;5002398;28;20225;-60
2023/12/06 08:05:21;;;;;;;26.40;12.17;;;3.70;99.90;;;;;;4997408;28;20758;-60
2023/12/06 08:07:49;;;;;;;23.63;12.33;;;3.70;99.90;;;;;;5005156;28;20240;-59
2023/12/06 08:10:22;;;;;;;22.40;11.60;;;3.80;99.90;;;;;;5006922;28;20225;-59
2023/12/06 08:12:53;;;;;;;29.00;12.23;;;3.80;99.90;;;;;;5004157;28;20308;-59
2023/12/06 08:15:23;;;;;;;27.93;13.03;;;3.80;99.90;;;;;;5003173;28;20280;-59
2023/12/06 08:17:51;;;;;;;21.70;11.23;;;3.90;99.90;;;;;;5006105;28;20231;-60
2023/12/06 08:20:20;;;;;;;19.57;10.90;;;3.90;99.90;;;;;;5003976;28;20278;-60
2023/12/06 08:22:48;;;;;;;19.03;10.60;;;3.90;99.90;;;;;;5002769;28;20204;-58
2023/12/06 08:25:17;;;;;;;16.87;10.37;;;4.00;99.90;;;;;;5001918;28;20226;-60
2023/12/06 08:27:46;;;;;;;22.77;11.23;;;4.00;99.90;;;;;;5005146;28;20217;-59
2023/12/06 08:30:15;;;;;;;19.67;10.73;;;4.00;99.90;;;;;;5001122;28;20222;-59
2023/12/06 08:32:46;;;;;;;21.77;11.07;;;4.00;99.90;;;;;;5004920;28;20214;-60
2023/12/06 08:35:15;;;;;;;26.07;12.93;;;4.10;99.90;;;;;;4998046;28;20230;-60
2023/12/06 08:37:43;;;;;;;23.93;12.53;;;4.10;99.90;;;;;;5006200;28;20214;-60
2023/12/06 08:40:13;;;;;;;17.47;10.33;;;4.20;99.90;;;;;;5004629;28;20222;-60
2023/12/06 08:42:41;;;;;;;19.27;9.50;;;4.30;99.90;;;;;;5008439;28;20224;-60
2023/12/06 08:45:13;;;;;;;17.63;9.60;;;4.30;99.90;;;;;;5011658;28;20218;-60
2023/12/06 08:47:42;;;;;;;18.77;10.27;;;4.30;99.90;;;;;;5007952;28;20699;-60
2023/12/06 08:50:14;;;;;;;16.77;9.37;;;4.30;99.90;;;;;;5013401;28;20222;-60
2023/12/06 08:52:45;;;;;;;14.60;9.87;;;4.30;99.90;;;;;;5013495;28;20202;-60
2023/12/06 08:55:13;;;;;;;13.67;9.13;;;4.30;99.90;;;;;;5006106;28;20253;-59
2023/12/06 08:57:42;;;;;;;15.03;9.00;;;4.40;99.90;;;;;;5009286;28;20317;-60
2023/12/06 09:00:13;;;;;;;15.13;8.50;;;4.40;99.90;;;;;;5007637;28;20233;-59
2023/12/06 09:02:42;;;;;;;18.20;9.33;;;4.60;99.90;;;;;;5003328;28;20232;-60
2023/12/06 09:05:11;;;;;;;18.50;9.70;;;4.70;99.90;;;;;;5012009;28;21029;-59
2023/12/06 09:07:40;;;;;;;23.23;10.57;;;4.80;99.90;;;;;;5008304;28;20269;-60
2023/12/06 09:10:09;;;;;;;20.27;11.37;;;4.90;99.90;;;;;;5010024;28;20766;-60
2023/12/06 09:12:38;;;;;;;21.33;10.77;;;5.00;99.90;;;;;;5010173;28;20249;-59
2023/12/06 09:15:07;;;;;;;21.50;10.67;;;5.00;99.90;;;;;;5012854;28;20264;-59
2023/12/06 09:17:37;;;;;;;23.27;10.93;;;5.00;99.90;;;;;;5012697;28;20223;-59
2023/12/06 09:20:09;;;;;;;21.77;11.23;;;5.00;99.90;;;;;;5010322;28;20807;-59
2023/12/06 09:22:38;;;;;;;25.93;11.20;;;5.10;99.90;;;;;;5000255;28;20213;-59
2023/12/06 09:25:07;;;;;;;17.43;10.60;;;5.20;99.90;;;;;;5006173;28;20230;-60
2023/12/06 09:27:35;;;;;;;19.43;10.63;;;5.20;99.90;;;;;;5005606;28;20585;-60
2023/12/06 09:30:04;;;;;;;16.67;10.00;;;5.20;99.90;;;;;;5006989;28;20229;-60
2023/12/06 09:32:33;;;;;;;16.53;10.03;;;5.20;99.90;;;;;;4989574;28;20221;-60
2023/12/06 09:35:04;;;;;;;20.93;10.63;;;5.30;99.90;;;;;;5005554;28;20253;-60
2023/12/06 09:37:33;;;;;;;18.00;9.97;;;5.40;99.90;;;;;;5007751;28;20270;-60
2023/12/06 09:40:02;;;;;;;17.13;10.73;;;5.60;99.90;;;;;;5008527;28;20222;-60
2023/12/06 09:42:33;;;;;;;18.50;10.57;;;5.70;99.90;;;;;;5007688;28;20560;-60
2023/12/06 09:45:02;;;;;;;16.07;9.87;;;5.70;99.90;;;;;;5011458;28;20284;-59
2023/12/06 09:47:31;;;;;;;14.63;9.53;;;5.70;99.90;;;;;;5003615;28;20226;-60
2023/12/06 09:50:01;;;;;;;18.73;9.97;;;5.50;99.90;;;;;;4998042;28;20190;-60
2023/12/06 09:52:29;;;;;;;14.87;9.37;;;5.40;99.90;;;;;;5007160;28;20200;-60
2023/12/06 09:54:59;;;;;;;16.27;8.97;;;5.30;99.90;;;;;;5009547;28;20708;-60
2023/12/06 09:57:27;;;;;;;20.80;10.23;;;5.20;99.90;;;;;;5004569;28;20727;-59
2023/12/06 09:59:56;;;;;;;16.27;9.97;;;5.30;99.90;;;;;;5008583;28;20222;-60
2023/12/06 10:02:24;;;;;;;21.33;10.60;;;5.30;99.90;;;;;;5008490;28;20213;-60
2023/12/06 10:04:58;;;;;;;12.83;8.90;;;5.30;99.90;;;;;;5007348;28;20190;-60
2023/12/06 10:07:34;;;;;;;16.43;9.23;;;5.30;99.90;;;;;;5011837;28;20198;-60
2023/12/06 10:10:02;;;;;;;13.00;8.90;;;5.50;99.90;;;;;;5005433;28;20256;-60
2023/12/06 10:12:31;;;;;;;14.83;9.00;;;5.70;99.90;;;;;;4987073;28;20325;-60
2023/12/06 10:15:00;;;;;;;11.90;8.30;;;6.00;99.90;;;;;;5007032;28;20249;-59
2023/12/06 10:17:28;;;;;;;14.27;7.40;;;6.50;99.90;;;;;;5002488;28;20221;-60
2023/12/06 10:19:57;;;;;;;10.63;7.17;;;6.70;99.90;;;;;;5005146;28;20214;-59
2023/12/06 10:22:27;;;;;;;10.13;6.80;;;6.80;99.90;;;;;;5005438;28;20201;-59
2023/12/06 10:24:57;;;;;;;10.73;6.57;;;6.80;99.90;;;;;;5000318;28;20218;-59
2023/12/06 10:27:26;;;;;;;12.23;6.60;;;6.70;99.90;;;;;;5002472;28;20226;-60
2023/12/06 10:29:54;;;;;;;12.03;6.50;;;6.60;99.90;;;;;;5006692;28;20242;-60
2023/12/06 10:32:23;;;;;;;12.13;6.80;;;6.60;99.90;;;;;;5007889;28;20229;-60
2023/12/06 10:34:52;;;;;;;9.00;6.57;;;6.50;99.90;;;;;;5004642;28;20232;-59
2023/12/06 10:37:22;;;;;;;11.63;6.97;;;6.40;99.90;;;;;;5002285;28;20692;-59
2023/12/06 10:39:55;;;;;;;9.37;6.50;;;6.30;99.90;;;;;;5002237;28;20221;-59
2023/12/06 10:42:33;;;;;;;8.73;6.57;;;6.30;99.90;;;;;;5003308;28;20550;-59
2023/12/06 10:45:02;;;;;;;12.00;6.77;;;6.20;99.90;;;;;;5007659;28;20224;-59
2023/12/06 10:47:31;;;;;;;11.73;6.97;;;6.20;99.90;;;;;;5010806;28;20703;-59
2023/12/06 10:50:03;;;;;;;15.27;7.37;;;6.30;99.90;;;;;;5007822;28;20241;-59
2023/12/06 10:52:33;;;;;;;13.53;6.83;;;6.30;99.90;;;;;;5007085;28;20631;-59
2023/12/06 10:55:03;;;;;;;7.77;6.80;;;6.30;99.90;;;;;;5009555;28;20241;-60
2023/12/06 10:57:37;;;;;;;10.50;6.83;;;6.30;99.90;;;;;;5005091;28;20256;-60
2023/12/06 11:00:07;;;;;;;14.43;7.00;;;6.30;99.90;;;;;;5000690;28;20230;-60
2023/12/06 11:02:35;;;;;;;13.87;7.00;;;6.30;99.90;;;;;;4999508;28;20718;-59
2023/12/06 11:05:07;;;;;;;14.53;7.30;;;6.30;99.90;;;;;;5000227;28;20202;-60
2023/12/06 11:07:55;;;;;;;12.33;6.80;;;6.30;99.90;;;;;;5003649;28;20261;-60
2023/12/06 11:10:38;;;;;;;11.43;7.60;;;6.30;99.90;;;;;;4997665;28;20704;-60
2023/12/06 11:13:23;;;;;;;15.53;6.87;;;6.30;99.90;;;;;;5001590;28;20226;-60
2023/12/06 11:15:59;;;;;;;13.83;7.53;;;6.40;99.90;;;;;;5001153;28;20279;-59
2023/12/06 11:18:36;;;;;;;11.07;7.67;;;6.40;99.90;;;;;;5005183;28;20580;-60
2023/12/06 11:21:05;;;;;;;15.90;7.70;;;6.50;99.90;;;;;;4992398;28;20233;-60
2023/12/06 11:23:34;;;;;;;15.30;7.87;;;6.60;99.90;;;;;;5007000;28;20222;-60
2023/12/06 11:26:04;;;;;;;13.67;7.43;;;6.70;99.90;;;;;;5000403;28;20208;-60
2023/12/06 11:28:40;;;;;;;11.37;7.77;;;6.80;99.90;;;;;;5002204;28;20545;-60
2023/12/06 11:31:12;;;;;;;11.73;7.43;;;6.80;99.90;;;;;;4983778;28;20231;-60
2023/12/06 11:33:54;;;;;;;16.27;7.60;;;6.90;99.90;;;;;;5007020;28;20221;-60
2023/12/06 11:36:24;;;;;;;11.53;7.87;;;7.10;99.90;;;;;;5009976;28;20213;-60
2023/12/06 11:38:54;;;;;;;19.30;10.30;;;7.30;99.90;;;;;;5006954;28;20224;-60
2023/12/06 11:41:23;;;;;;;14.47;8.27;;;7.50;99.90;;;;;;5001715;28;20224;-59
2023/12/06 11:43:53;;;;;;;15.67;8.17;;;7.60;99.90;;;;;;5006501;28;20202;-60
2023/12/06 11:46:23;;;;;;;24.47;9.07;;;7.60;99.90;;;;;;4999588;28;20206;-59
2023/12/06 11:48:52;;;;;;;13.83;7.87;;;7.50;99.90;;;;;;4993409;28;20248;-60
2023/12/06 11:51:21;;;;;;;23.40;9.10;;;7.30;99.90;;;;;;5003198;28;20221;-59
2023/12/06 11:53:51;;;;;;;14.50;8.20;;;7.30;99.90;;;;;;4992642;28;20226;-60
2023/12/06 11:56:23;;;;;;;14.87;8.37;;;7.30;99.90;;;;;;5006889;28;20268;-60
2023/12/06 11:58:53;;;;;;;13.80;7.20;;;7.30;99.90;;;;;;5007811;28;20253;-60
2023/12/06 12:01:22;;;;;;;17.03;7.80;;;7.30;99.90;;;;;;4983628;28;20205;-60
2023/12/06 12:03:52;;;;;;;7.90;6.80;;;7.30;99.90;;;;;;4996680;28;20236;-59
2023/12/06 12:06:23;;;;;;;13.23;7.33;;;7.30;99.90;;;;;;5004140;28;20662;-60
2023/12/06 12:08:51;;;;;;;12.30;7.70;;;7.30;99.90;;;;;;5002520;28;20268;-60
2023/12/06 12:11:19;;;;;;;13.10;8.10;;;7.30;99.90;;;;;;5000936;28;20315;-60
2023/12/06 12:13:48;;;;;;;14.57;9.53;;;7.30;99.90;;;;;;5002962;28;20683;-60
2023/12/06 12:16:21;;;;;;;14.67;8.10;;;7.30;99.90;;;;;;5003681;28;20248;-60
2023/12/06 12:18:49;;;;;;;12.67;8.33;;;7.20;99.90;;;;;;5003565;28;20217;-59
2023/12/06 12:21:19;;;;;;;10.93;8.00;;;7.10;99.90;;;;;;5002486;28;20316;-59
2023/12/06 12:23:48;;;;;;;13.70;7.47;;;7.00;99.90;;;;;;5004117;28;20268;-60
2023/12/06 12:26:18;;;;;;;15.57;8.50;;;7.00;99.90;;;;;;5005702;28;20224;-60
2023/12/06 12:28:47;;;;;;;11.80;7.67;;;7.00;99.90;;;;;;5007986;28;20833;-60
2023/12/06 12:31:20;;;;;;;17.40;8.37;;;7.00;99.90;;;;;;5008146;28;20296;-60
2023/12/06 12:33:50;;;;;;;13.93;7.83;;;7.00;99.90;;;;;;5008521;28;20218;-60
2023/12/06 12:36:26;;;;;;;12.30;8.13;;;6.90;99.90;;;;;;5006259;28;20213;-59
2023/12/06 12:38:59;;;;;;;14.97;7.87;;;6.90;99.90;;;;;;4988978;28;20220;-59
2023/12/06 12:41:29;;;;;;;12.93;7.50;;;6.90;99.90;;;;;;5003985;28;20228;-60
2023/12/06 12:44:00;;;;;;;9.93;7.13;;;6.80;99.90;;;;;;5003519;28;20222;-60
2023/12/06 12:46:33;;;;;;;10.23;7.30;;;6.70;99.90;;;;;;5008964;28;20194;-60
2023/12/06 12:49:06;;;;;;;13.07;7.80;;;6.60;99.90;;;;;;5004215;28;20226;-59
2023/12/06 12:51:35;;;;;;;13.60;8.07;;;6.50;99.90;;;;;;5006044;28;20237;-60